Terminal Aerodrome Forecast
Issued by NWS

Home | Current Version | Previous Version | Text Only | Print | Product List | Glossary Off
Versions: 1 2 3 4 5 6 7 8 9 10 11 12 13 14 15 16 17

044
FTUS43 KPAH 211942 AAA
TAFCGI
TAF AMD
KCGI 211942Z 2120/2218 21005KT P6SM FEW035
     FM220000 18005KT P6SM SCT200
     FM221500 24007KT P6SM BKN150=

USA.gov is the U.S. government's official web portal to all federal, state and local government web resources and services.